Portada
METAR-TAF:

METAR-TAF

Aeroports :

Le Havre, França

latitud: 49-31N, longitud: 000-04E, altitud: 100 m

Observació

L'informe es va fer fa 13 minuts, a les 23:00 UTC
Vent 4 kt del Est/Sud-Est
Temperatura 3°C
Humitat 93%
Pressió 1025 hPa
Visibilitat: 2900 m
Cel cobert a una alçada de 200 ft
boirina

METAR: LFOH 232300Z AUTO 11004KT 2900 BR OVC002 03/02 Q1025

Hora: 00:13 (23:13 UTC)

Pronòstic

L'informe es va fer fa 5 hores i 2 minuts, a les 18:11 UTC
Pronòstic vàlid del 23 a les 18 UTC al 24 a les 12 UTC
Vent 8 kt del Est
Visibilitat: 4000 m
boirina
Evolucionant progressivament
l' 23 a les 18 UTC al 23 a les 20 UTC
Cel cobert a una alçada de 500 ft
Temporalment
l' 23 a les 20 UTC al 24 a les 10 UTC
Visibilitat: 2000 m
Cel cobert a una alçada de 300 ft
boirina

TAF: LFOH 231811Z 2318/2412 09008KT 4000 BR NSC BECMG 2318/2320 OVC005 TEMPO 2320/2410 2000 BR OVC003

Observacions i pronòstics meteorològics de més de 4000 aeroports (METAR i TAF).

Les estacions disponibles són els punts grocs i vermells al mapa.

Posi el ratolí al punt desitjat per veure el nom de l'estació.

Feu clic per veure les observacions i els pronòstics meteorològics.

Per canviar el mapa: feu clic els botons verds amb una creu de color negre per apropar; al botó verd amb un guió per allunyar la imatge; o en les fletxes verdes per a mapes adjacents.


METAR-TAF: